sensor_id;sensor_type;location;lat;lon;timestamp;P1;durP1;ratioP1;P2;durP2;ratioP2
64738;SDS011;51175;51.186;0.276;2022-07-29T00:00:18;8.50;;;5.63;;
64738;SDS011;51175;51.186;0.276;2022-07-29T00:00:48;7.75;;;5.43;;
64738;SDS011;51175;51.186;0.276;2022-07-29T00:01:19;9.82;;;5.55;;
64738;SDS011;51175;51.186;0.276;2022-07-29T00:01:49;8.32;;;5.22;;
64738;SDS011;51175;51.186;0.276;2022-07-29T00:02:22;6.32;;;4.97;;
64738;SDS011;51175;51.186;0.276;2022-07-29T00:02:52;9.82;;;5.82;;
64738;SDS011;51175;51.186;0.276;2022-07-29T00:03:23;6.93;;;5.22;;
64738;SDS011;51175;51.186;0.276;2022-07-29T00:03:53;8.10;;;6.05;;
64738;SDS011;51175;51.186;0.276;2022-07-29T00:04:23;6.88;;;5.18;;
64738;SDS011;51175;51.186;0.276;2022-07-29T00:04:54;7.40;;;4.90;;
64738;SDS011;51175;51.186;0.276;2022-07-29T00:05:24;7.72;;;4.88;;
64738;SDS011;51175;51.186;0.276;2022-07-29T00:05:55;10.27;;;5.18;;
64738;SDS011;51175;51.186;0.276;2022-07-29T00:06:25;8.90;;;5.35;;
64738;SDS011;51175;51.186;0.276;2022-07-29T00:06:55;7.13;;;4.43;;
64738;SDS011;51175;51.186;0.276;2022-07-29T00:07:26;7.32;;;5.07;;
64738;SDS011;51175;51.186;0.276;2022-07-29T00:07:56;8.23;;;5.82;;
64738;SDS011;51175;51.186;0.276;2022-07-29T00:08:28;7.25;;;5.35;;
64738;SDS011;51175;51.186;0.276;2022-07-29T00:08:58;6.25;;;4.70;;
64738;SDS011;51175;51.186;0.276;2022-07-29T00:09:29;10.43;;;5.28;;
64738;SDS011;51175;51.186;0.276;2022-07-29T00:09:59;8.77;;;5.72;;
64738;SDS011;51175;51.186;0.276;2022-07-29T00:10:30;7.53;;;5.63;;
64738;SDS011;51175;51.186;0.276;2022-07-29T00:11:00;7.47;;;4.78;;
64738;SDS011;51175;51.186;0.276;2022-07-29T00:11:31;7.68;;;4.75;;
64738;SDS011;51175;51.186;0.276;2022-07-29T00:12:01;7.82;;;4.40;;
64738;SDS011;51175;51.186;0.276;2022-07-29T00:12:32;6.65;;;4.95;;
64738;SDS011;51175;51.186;0.276;2022-07-29T00:13:03;7.72;;;4.70;;
64738;SDS011;51175;51.186;0.276;2022-07-29T00:13:33;7.28;;;5.00;;
64738;SDS011;51175;51.186;0.276;2022-07-29T00:14:04;7.20;;;4.68;;
64738;SDS011;51175;51.186;0.276;2022-07-29T00:14:34;6.15;;;3.97;;
64738;SDS011;51175;51.186;0.276;2022-07-29T00:15:05;6.22;;;4.28;;
64738;SDS011;51175;51.186;0.276;2022-07-29T00:15:36;5.68;;;4.10;;
64738;SDS011;51175;51.186;0.276;2022-07-29T00:16:06;7.43;;;5.13;;
64738;SDS011;51175;51.186;0.276;2022-07-29T00:16:36;5.85;;;4.13;;
64738;SDS011;51175;51.186;0.276;2022-07-29T00:17:07;7.88;;;4.70;;
64738;SDS011;51175;51.186;0.276;2022-07-29T00:17:38;5.90;;;4.13;;
64738;SDS011;51175;51.186;0.276;2022-07-29T00:18:08;8.85;;;4.68;;
64738;SDS011;51175;51.186;0.276;2022-07-29T00:18:39;6.40;;;4.18;;
64738;SDS011;51175;51.186;0.276;2022-07-29T00:19:09;6.45;;;4.45;;
64738;SDS011;51175;51.186;0.276;2022-07-29T00:19:40;8.95;;;4.38;;
64738;SDS011;51175;51.186;0.276;2022-07-29T00:20:10;6.72;;;4.28;;
64738;SDS011;51175;51.186;0.276;2022-07-29T00:20:41;5.70;;;3.85;;
64738;SDS011;51175;51.186;0.276;2022-07-29T00:21:11;5.35;;;4.10;;
64738;SDS011;51175;51.186;0.276;2022-07-29T00:21:42;7.00;;;4.05;;
64738;SDS011;51175;51.186;0.276;2022-07-29T00:22:12;4.75;;;3.60;;
64738;SDS011;51175;51.186;0.276;2022-07-29T00:22:42;6.63;;;4.13;;
64738;SDS011;51175;51.186;0.276;2022-07-29T00:23:13;7.35;;;4.97;;
64738;SDS011;51175;51.186;0.276;2022-07-29T00:23:43;5.97;;;4.28;;
64738;SDS011;51175;51.186;0.276;2022-07-29T00:24:14;5.28;;;3.85;;
64738;SDS011;51175;51.186;0.276;2022-07-29T00:24:44;5.53;;;4.05;;
64738;SDS011;51175;51.186;0.276;2022-07-29T00:25:16;7.70;;;4.78;;
64738;SDS011;51175;51.186;0.276;2022-07-29T00:25:47;5.68;;;4.15;;
64738;SDS011;51175;51.186;0.276;2022-07-29T00:26:17;6.43;;;4.32;;
64738;SDS011;51175;51.186;0.276;2022-07-29T00:26:47;7.13;;;4.40;;
64738;SDS011;51175;51.186;0.276;2022-07-29T00:27:18;6.68;;;3.75;;
64738;SDS011;51175;51.186;0.276;2022-07-29T00:27:48;6.22;;;3.72;;
64738;SDS011;51175;51.186;0.276;2022-07-29T00:28:19;6.18;;;4.20;;
64738;SDS011;51175;51.186;0.276;2022-07-29T00:28:49;5.82;;;3.97;;
64738;SDS011;51175;51.186;0.276;2022-07-29T00:29:20;5.68;;;4.05;;
64738;SDS011;51175;51.186;0.276;2022-07-29T00:29:50;5.22;;;3.67;;
64738;SDS011;51175;51.186;0.276;2022-07-29T00:30:21;8.55;;;3.85;;
64738;SDS011;51175;51.186;0.276;2022-07-29T00:30:51;6.68;;;4.18;;
64738;SDS011;51175;51.186;0.276;2022-07-29T00:31:21;6.68;;;4.22;;
64738;SDS011;51175;51.186;0.276;2022-07-29T00:31:52;6.65;;;3.97;;
64738;SDS011;51175;51.186;0.276;2022-07-29T00:32:22;6.10;;;3.85;;
64738;SDS011;51175;51.186;0.276;2022-07-29T00:32:53;6.35;;;4.05;;
64738;SDS011;51175;51.186;0.276;2022-07-29T00:33:23;6.07;;;3.90;;
64738;SDS011;51175;51.186;0.276;2022-07-29T00:33:54;7.88;;;4.28;;
64738;SDS011;51175;51.186;0.276;2022-07-29T00:34:25;5.72;;;3.83;;
64738;SDS011;51175;51.186;0.276;2022-07-29T00:35:13;6.18;;;3.85;;
64738;SDS011;51175;51.186;0.276;2022-07-29T00:36:03;6.60;;;3.83;;
64738;SDS011;51175;51.186;0.276;2022-07-29T00:36:33;5.78;;;4.20;;
64738;SDS011;51175;51.186;0.276;2022-07-29T00:37:04;6.78;;;4.10;;
64738;SDS011;51175;51.186;0.276;2022-07-29T00:37:34;5.45;;;3.50;;
64738;SDS011;51175;51.186;0.276;2022-07-29T00:38:04;6.32;;;3.80;;
64738;SDS011;51175;51.186;0.276;2022-07-29T00:38:35;5.20;;;3.90;;
64738;SDS011;51175;51.186;0.276;2022-07-29T00:39:05;7.15;;;3.20;;
64738;SDS011;51175;51.186;0.276;2022-07-29T00:39:36;6.40;;;4.00;;
64738;SDS011;51175;51.186;0.276;2022-07-29T00:40:06;5.10;;;3.70;;
64738;SDS011;51175;51.186;0.276;2022-07-29T00:40:38;5.50;;;3.58;;
64738;SDS011;51175;51.186;0.276;2022-07-29T00:41:09;5.18;;;3.88;;
64738;SDS011;51175;51.186;0.276;2022-07-29T00:41:39;5.93;;;4.03;;
64738;SDS011;51175;51.186;0.276;2022-07-29T00:42:09;5.72;;;3.60;;
64738;SDS011;51175;51.186;0.276;2022-07-29T00:42:47;5.53;;;3.25;;
64738;SDS011;51175;51.186;0.276;2022-07-29T00:43:19;5.38;;;3.60;;
64738;SDS011;51175;51.186;0.276;2022-07-29T00:43:49;6.05;;;3.65;;
64738;SDS011;51175;51.186;0.276;2022-07-29T00:44:20;6.00;;;3.97;;
64738;SDS011;51175;51.186;0.276;2022-07-29T00:44:50;6.40;;;4.30;;
64738;SDS011;51175;51.186;0.276;2022-07-29T00:45:21;5.07;;;3.50;;
64738;SDS011;51175;51.186;0.276;2022-07-29T00:45:52;5.25;;;3.13;;
64738;SDS011;51175;51.186;0.276;2022-07-29T00:46:22;5.45;;;3.50;;
64738;SDS011;51175;51.186;0.276;2022-07-29T00:46:53;5.40;;;3.35;;
64738;SDS011;51175;51.186;0.276;2022-07-29T00:47:23;5.60;;;3.10;;
64738;SDS011;51175;51.186;0.276;2022-07-29T00:47:53;6.72;;;3.97;;
64738;SDS011;51175;51.186;0.276;2022-07-29T00:48:24;5.88;;;3.50;;
64738;SDS011;51175;51.186;0.276;2022-07-29T00:48:54;4.97;;;3.47;;
64738;SDS011;51175;51.186;0.276;2022-07-29T00:49:25;4.60;;;3.30;;
64738;SDS011;51175;51.186;0.276;2022-07-29T00:49:55;4.90;;;3.58;;
64738;SDS011;51175;51.186;0.276;2022-07-29T00:50:26;6.13;;;3.58;;
64738;SDS011;51175;51.186;0.276;2022-07-29T00:50:57;5.18;;;3.28;;
64738;SDS011;51175;51.186;0.276;2022-07-29T00:51:28;6.32;;;3.80;;
64738;SDS011;51175;51.186;0.276;2022-07-29T00:52:00;5.97;;;3.33;;
64738;SDS011;51175;51.186;0.276;2022-07-29T00:52:32;3.97;;;3.17;;
64738;SDS011;51175;51.186;0.276;2022-07-29T00:53:05;7.05;;;3.17;;
64738;SDS011;51175;51.186;0.276;2022-07-29T00:53:37;5.20;;;3.38;;
64738;SDS011;51175;51.186;0.276;2022-07-29T00:54:08;5.43;;;3.10;;
64738;SDS011;51175;51.186;0.276;2022-07-29T00:54:39;4.85;;;3.20;;
64738;SDS011;51175;51.186;0.276;2022-07-29T00:55:12;4.53;;;3.08;;
64738;SDS011;51175;51.186;0.276;2022-07-29T00:55:43;4.38;;;3.17;;
64738;SDS011;51175;51.186;0.276;2022-07-29T00:56:14;6.88;;;3.83;;
64738;SDS011;51175;51.186;0.276;2022-07-29T00:56:44;5.57;;;3.58;;
64738;SDS011;51175;51.186;0.276;2022-07-29T00:57:15;4.82;;;3.30;;
64738;SDS011;51175;51.186;0.276;2022-07-29T00:57:45;4.38;;;2.90;;
64738;SDS011;51175;51.186;0.276;2022-07-29T00:58:16;4.95;;;3.05;;
64738;SDS011;51175;51.186;0.276;2022-07-29T00:58:47;6.15;;;3.60;;
64738;SDS011;51175;51.186;0.276;2022-07-29T00:59:20;4.20;;;3.10;;
64738;SDS011;51175;51.186;0.276;2022-07-29T00:59:50;6.40;;;3.58;;
64738;SDS011;51175;51.186;0.276;2022-07-29T01:00:24;5.03;;;3.50;;
64738;SDS011;51175;51.186;0.276;2022-07-29T01:00:55;4.70;;;3.28;;
64738;SDS011;51175;51.186;0.276;2022-07-29T01:01:27;5.97;;;3.50;;
64738;SDS011;51175;51.186;0.276;2022-07-29T01:01:58;5.82;;;3.50;;
64738;SDS011;51175;51.186;0.276;2022-07-29T01:02:31;4.15;;;2.80;;
64738;SDS011;51175;51.186;0.276;2022-07-29T01:03:01;5.93;;;3.08;;
64738;SDS011;51175;51.186;0.276;2022-07-29T01:03:31;4.75;;;3.15;;
64738;SDS011;51175;51.186;0.276;2022-07-29T01:04:02;5.88;;;3.53;;
64738;SDS011;51175;51.186;0.276;2022-07-29T01:04:32;4.32;;;2.75;;
64738;SDS011;51175;51.186;0.276;2022-07-29T01:05:04;6.35;;;3.10;;
64738;SDS011;51175;51.186;0.276;2022-07-29T01:05:35;5.35;;;3.17;;
64738;SDS011;51175;51.186;0.276;2022-07-29T01:06:06;4.55;;;3.25;;
64738;SDS011;51175;51.186;0.276;2022-07-29T01:06:36;4.97;;;3.38;;
64738;SDS011;51175;51.186;0.276;2022-07-29T01:07:07;7.25;;;3.78;;
64738;SDS011;51175;51.186;0.276;2022-07-29T01:07:38;4.30;;;2.63;;
64738;SDS011;51175;51.186;0.276;2022-07-29T01:08:09;6.63;;;3.05;;
64738;SDS011;51175;51.186;0.276;2022-07-29T01:08:42;5.20;;;2.50;;
64738;SDS011;51175;51.186;0.276;2022-07-29T01:09:14;5.38;;;2.67;;
64738;SDS011;51175;51.186;0.276;2022-07-29T01:09:45;3.90;;;2.65;;
64738;SDS011;51175;51.186;0.276;2022-07-29T01:10:17;5.25;;;2.70;;
64738;SDS011;51175;51.186;0.276;2022-07-29T01:10:49;5.15;;;3.10;;
64738;SDS011;51175;51.186;0.276;2022-07-29T01:11:21;3.28;;;2.53;;
64738;SDS011;51175;51.186;0.276;2022-07-29T01:11:51;5.07;;;2.90;;
64738;SDS011;51175;51.186;0.276;2022-07-29T01:12:25;3.67;;;2.72;;
64738;SDS011;51175;51.186;0.276;2022-07-29T01:12:57;6.10;;;3.13;;
64738;SDS011;51175;51.186;0.276;2022-07-29T01:13:29;5.68;;;3.10;;
64738;SDS011;51175;51.186;0.276;2022-07-29T01:14:01;3.22;;;2.35;;
64738;SDS011;51175;51.186;0.276;2022-07-29T01:14:32;4.80;;;3.22;;
64738;SDS011;51175;51.186;0.276;2022-07-29T01:15:03;5.63;;;3.17;;
64738;SDS011;51175;51.186;0.276;2022-07-29T01:15:42;4.38;;;3.00;;
64738;SDS011;51175;51.186;0.276;2022-07-29T01:16:20;4.97;;;2.97;;
64738;SDS011;51175;51.186;0.276;2022-07-29T01:17:03;4.97;;;3.00;;
64738;SDS011;51175;51.186;0.276;2022-07-29T01:18:16;4.30;;;2.75;;
64738;SDS011;51175;51.186;0.276;2022-07-29T01:18:50;3.85;;;2.45;;
64738;SDS011;51175;51.186;0.276;2022-07-29T01:20:29;5.78;;;3.67;;
64738;SDS011;51175;51.186;0.276;2022-07-29T01:24:05;3.30;;;2.08;;
64738;SDS011;51175;51.186;0.276;2022-07-29T01:27:34;4.28;;;2.53;;
64738;SDS011;51175;51.186;0.276;2022-07-29T01:29:54;4.72;;;2.20;;
64738;SDS011;51175;51.186;0.276;2022-07-29T01:30:27;4.55;;;2.45;;
64738;SDS011;51175;51.186;0.276;2022-07-29T01:30:58;3.78;;;2.22;;
64738;SDS011;51175;51.186;0.276;2022-07-29T01:31:42;3.67;;;2.13;;
64738;SDS011;51175;51.186;0.276;2022-07-29T01:32:21;3.65;;;2.03;;
64738;SDS011;51175;51.186;0.276;2022-07-29T01:32:59;3.67;;;2.78;;
64738;SDS011;51175;51.186;0.276;2022-07-29T01:33:35;5.20;;;2.45;;
64738;SDS011;51175;51.186;0.276;2022-07-29T01:34:24;4.93;;;2.35;;
64738;SDS011;51175;51.186;0.276;2022-07-29T01:35:38;4.20;;;2.13;;
64738;SDS011;51175;51.186;0.276;2022-07-29T01:36:12;3.75;;;2.22;;
64738;SDS011;51175;51.186;0.276;2022-07-29T01:36:55;5.47;;;2.72;;
64738;SDS011;51175;51.186;0.276;2022-07-29T01:37:55;3.85;;;2.50;;
64738;SDS011;51175;51.186;0.276;2022-07-29T01:38:26;4.53;;;2.17;;
64738;SDS011;51175;51.186;0.276;2022-07-29T01:39:02;3.25;;;2.22;;
64738;SDS011;51175;51.186;0.276;2022-07-29T01:39:41;4.05;;;2.13;;
64738;SDS011;51175;51.186;0.276;2022-07-29T01:40:58;3.28;;;2.05;;
64738;SDS011;51175;51.186;0.276;2022-07-29T01:41:35;3.45;;;2.42;;
64738;SDS011;51175;51.186;0.276;2022-07-29T01:42:12;3.85;;;2.33;;
64738;SDS011;51175;51.186;0.276;2022-07-29T01:42:54;4.55;;;2.30;;
64738;SDS011;51175;51.186;0.276;2022-07-29T01:43:31;4.15;;;2.60;;
64738;SDS011;51175;51.186;0.276;2022-07-29T01:44:57;6.20;;;2.42;;
64738;SDS011;51175;51.186;0.276;2022-07-29T01:46:31;2.47;;;1.67;;
64738;SDS011;51175;51.186;0.276;2022-07-29T01:47:06;4.30;;;2.53;;
64738;SDS011;51175;51.186;0.276;2022-07-29T01:47:54;3.35;;;2.15;;
64738;SDS011;51175;51.186;0.276;2022-07-29T01:49:24;3.60;;;2.30;;
64738;SDS011;51175;51.186;0.276;2022-07-29T01:49:58;3.05;;;2.20;;
64738;SDS011;51175;51.186;0.276;2022-07-29T01:50:34;4.70;;;1.90;;
64738;SDS011;51175;51.186;0.276;2022-07-29T01:51:20;3.05;;;2.05;;
64738;SDS011;51175;51.186;0.276;2022-07-29T01:51:59;3.42;;;2.22;;
64738;SDS011;51175;51.186;0.276;2022-07-29T01:52:39;2.53;;;1.73;;
64738;SDS011;51175;51.186;0.276;2022-07-29T01:53:21;3.38;;;2.08;;
64738;SDS011;51175;51.186;0.276;2022-07-29T01:54:25;5.07;;;2.45;;
64738;SDS011;51175;51.186;0.276;2022-07-29T01:55:02;2.72;;;1.70;;
64738;SDS011;51175;51.186;0.276;2022-07-29T01:55:42;4.90;;;2.67;;
64738;SDS011;51175;51.186;0.276;2022-07-29T01:56:14;3.55;;;2.00;;
64738;SDS011;51175;51.186;0.276;2022-07-29T01:56:49;3.22;;;2.00;;
64738;SDS011;51175;51.186;0.276;2022-07-29T01:57:25;3.67;;;1.90;;
64738;SDS011;51175;51.186;0.276;2022-07-29T01:57:58;4.55;;;2.13;;
64738;SDS011;51175;51.186;0.276;2022-07-29T01:58:31;2.38;;;1.85;;
64738;SDS011;51175;51.186;0.276;2022-07-29T01:59:02;3.67;;;2.00;;
64738;SDS011;51175;51.186;0.276;2022-07-29T01:59:36;3.92;;;2.28;;
64738;SDS011;51175;51.186;0.276;2022-07-29T02:00:08;5.15;;;2.38;;
64738;SDS011;51175;51.186;0.276;2022-07-29T02:00:39;2.72;;;1.75;;
64738;SDS011;51175;51.186;0.276;2022-07-29T02:01:11;5.30;;;2.10;;
64738;SDS011;51175;51.186;0.276;2022-07-29T02:01:44;2.72;;;1.80;;
64738;SDS011;51175;51.186;0.276;2022-07-29T02:02:16;3.55;;;2.40;;
64738;SDS011;51175;51.186;0.276;2022-07-29T02:02:49;4.20;;;2.63;;
64738;SDS011;51175;51.186;0.276;2022-07-29T02:03:22;3.72;;;1.85;;
64738;SDS011;51175;51.186;0.276;2022-07-29T02:03:53;3.38;;;2.03;;
64738;SDS011;51175;51.186;0.276;2022-07-29T02:04:26;3.08;;;1.73;;
64738;SDS011;51175;51.186;0.276;2022-07-29T02:04:59;4.10;;;2.22;;
64738;SDS011;51175;51.186;0.276;2022-07-29T02:05:32;3.65;;;1.98;;
64738;SDS011;51175;51.186;0.276;2022-07-29T02:06:05;3.47;;;1.92;;
64738;SDS011;51175;51.186;0.276;2022-07-29T02:06:38;3.45;;;1.67;;
64738;SDS011;51175;51.186;0.276;2022-07-29T02:07:13;2.67;;;1.83;;
64738;SDS011;51175;51.186;0.276;2022-07-29T02:07:48;2.70;;;1.50;;
64738;SDS011;51175;51.186;0.276;2022-07-29T02:08:20;2.38;;;1.67;;
64738;SDS011;51175;51.186;0.276;2022-07-29T02:08:51;4.95;;;2.13;;
64738;SDS011;51175;51.186;0.276;2022-07-29T02:09:24;2.90;;;1.90;;
64738;SDS011;51175;51.186;0.276;2022-07-29T02:09:55;2.78;;;2.03;;
64738;SDS011;51175;51.186;0.276;2022-07-29T02:10:29;3.10;;;1.55;;
64738;SDS011;51175;51.186;0.276;2022-07-29T02:11:03;3.50;;;2.25;;
64738;SDS011;51175;51.186;0.276;2022-07-29T02:11:36;5.53;;;2.20;;
64738;SDS011;51175;51.186;0.276;2022-07-29T02:12:08;2.85;;;2.08;;
64738;SDS011;51175;51.186;0.276;2022-07-29T02:12:40;2.17;;;1.45;;
64738;SDS011;51175;51.186;0.276;2022-07-29T02:13:13;3.50;;;2.00;;
64738;SDS011;51175;51.186;0.276;2022-07-29T02:13:45;2.65;;;2.08;;
64738;SDS011;51175;51.186;0.276;2022-07-29T02:14:18;5.00;;;2.20;;
64738;SDS011;51175;51.186;0.276;2022-07-29T02:14:50;3.95;;;2.08;;
64738;SDS011;51175;51.186;0.276;2022-07-29T02:15:23;3.10;;;1.70;;
64738;SDS011;51175;51.186;0.276;2022-07-29T02:15:57;3.60;;;1.70;;
64738;SDS011;51175;51.186;0.276;2022-07-29T02:16:30;3.42;;;1.70;;
64738;SDS011;51175;51.186;0.276;2022-07-29T02:17:03;3.45;;;1.80;;
64738;SDS011;51175;51.186;0.276;2022-07-29T02:17:35;2.20;;;1.42;;
64738;SDS011;51175;51.186;0.276;2022-07-29T02:18:16;2.88;;;1.45;;
64738;SDS011;51175;51.186;0.276;2022-07-29T02:18:49;3.15;;;1.92;;
64738;SDS011;51175;51.186;0.276;2022-07-29T02:19:23;5.13;;;2.15;;
64738;SDS011;51175;51.186;0.276;2022-07-29T02:19:59;3.85;;;2.25;;
64738;SDS011;51175;51.186;0.276;2022-07-29T02:20:31;3.30;;;1.92;;
64738;SDS011;51175;51.186;0.276;2022-07-29T02:21:03;2.42;;;1.50;;
64738;SDS011;51175;51.186;0.276;2022-07-29T02:21:34;2.63;;;1.80;;
64738;SDS011;51175;51.186;0.276;2022-07-29T02:22:05;2.25;;;1.55;;
64738;SDS011;51175;51.186;0.276;2022-07-29T02:22:38;2.85;;;1.80;;
64738;SDS011;51175;51.186;0.276;2022-07-29T02:23:10;2.83;;;1.75;;
64738;SDS011;51175;51.186;0.276;2022-07-29T02:23:42;2.85;;;1.83;;
64738;SDS011;51175;51.186;0.276;2022-07-29T02:24:15;3.83;;;1.80;;
64738;SDS011;51175;51.186;0.276;2022-07-29T02:24:47;3.55;;;1.35;;
64738;SDS011;51175;51.186;0.276;2022-07-29T02:25:21;2.92;;;1.70;;
64738;SDS011;51175;51.186;0.276;2022-07-29T02:25:54;2.15;;;1.17;;
64738;SDS011;51175;51.186;0.276;2022-07-29T02:26:27;3.05;;;2.45;;
64738;SDS011;51175;51.186;0.276;2022-07-29T02:26:59;2.70;;;1.75;;
64738;SDS011;51175;51.186;0.276;2022-07-29T02:27:32;2.78;;;1.60;;
64738;SDS011;51175;51.186;0.276;2022-07-29T02:28:05;4.85;;;1.77;;
64738;SDS011;51175;51.186;0.276;2022-07-29T02:28:38;3.03;;;1.40;;
64738;SDS011;51175;51.186;0.276;2022-07-29T02:29:10;2.60;;;1.77;;
64738;SDS011;51175;51.186;0.276;2022-07-29T02:29:42;1.98;;;1.20;;
64738;SDS011;51175;51.186;0.276;2022-07-29T02:30:14;2.75;;;1.60;;
64738;SDS011;51175;51.186;0.276;2022-07-29T02:30:45;2.38;;;1.35;;
64738;SDS011;51175;51.186;0.276;2022-07-29T02:31:18;2.35;;;1.73;;
64738;SDS011;51175;51.186;0.276;2022-07-29T02:31:51;3.42;;;1.77;;
64738;SDS011;51175;51.186;0.276;2022-07-29T02:32:24;4.07;;;2.08;;
64738;SDS011;51175;51.186;0.276;2022-07-29T02:32:57;4.28;;;1.65;;
64738;SDS011;51175;51.186;0.276;2022-07-29T02:33:29;2.47;;;1.83;;
64738;SDS011;51175;51.186;0.276;2022-07-29T02:34:01;2.75;;;1.35;;
64738;SDS011;51175;51.186;0.276;2022-07-29T02:34:33;2.17;;;1.33;;
64738;SDS011;51175;51.186;0.276;2022-07-29T02:35:06;2.33;;;1.30;;
64738;SDS011;51175;51.186;0.276;2022-07-29T02:35:39;3.00;;;1.60;;
64738;SDS011;51175;51.186;0.276;2022-07-29T02:36:11;2.10;;;1.20;;
64738;SDS011;51175;51.186;0.276;2022-07-29T02:36:42;2.03;;;1.30;;
64738;SDS011;51175;51.186;0.276;2022-07-29T02:37:14;4.10;;;1.38;;
64738;SDS011;51175;51.186;0.276;2022-07-29T02:37:47;4.38;;;1.63;;
64738;SDS011;51175;51.186;0.276;2022-07-29T02:38:38;3.80;;;1.23;;
64738;SDS011;51175;51.186;0.276;2022-07-29T02:39:21;1.75;;;1.27;;
64738;SDS011;51175;51.186;0.276;2022-07-29T02:39:55;2.28;;;1.60;;
64738;SDS011;51175;51.186;0.276;2022-07-29T02:40:28;2.65;;;1.40;;
64738;SDS011;51175;51.186;0.276;2022-07-29T02:41:00;2.67;;;1.40;;
64738;SDS011;51175;51.186;0.276;2022-07-29T02:41:35;3.20;;;1.42;;
64738;SDS011;51175;51.186;0.276;2022-07-29T02:42:11;4.35;;;1.85;;
64738;SDS011;51175;51.186;0.276;2022-07-29T02:42:44;2.28;;;1.67;;
64738;SDS011;51175;51.186;0.276;2022-07-29T02:43:17;4.70;;;1.50;;
64738;SDS011;51175;51.186;0.276;2022-07-29T02:43:50;2.78;;;1.60;;
64738;SDS011;51175;51.186;0.276;2022-07-29T02:44:25;2.90;;;1.20;;
64738;SDS011;51175;51.186;0.276;2022-07-29T02:44:55;4.20;;;1.80;;
64738;SDS011;51175;51.186;0.276;2022-07-29T02:45:26;3.80;;;1.48;;
64738;SDS011;51175;51.186;0.276;2022-07-29T02:45:56;2.35;;;1.38;;
64738;SDS011;51175;51.186;0.276;2022-07-29T02:46:30;3.13;;;1.50;;
64738;SDS011;51175;51.186;0.276;2022-07-29T02:47:07;2.30;;;1.48;;
64738;SDS011;51175;51.186;0.276;2022-07-29T02:47:41;1.77;;;1.20;;
64738;SDS011;51175;51.186;0.276;2022-07-29T02:48:13;2.83;;;1.38;;
64738;SDS011;51175;51.186;0.276;2022-07-29T02:49:32;2.67;;;1.40;;
64738;SDS011;51175;51.186;0.276;2022-07-29T02:50:00;3.05;;;1.45;;
64738;SDS011;51175;51.186;0.276;2022-07-29T02:50:40;3.50;;;1.27;;
64738;SDS011;51175;51.186;0.276;2022-07-29T02:51:23;2.50;;;1.55;;
64738;SDS011;51175;51.186;0.276;2022-07-29T02:51:58;2.80;;;1.50;;
64738;SDS011;51175;51.186;0.276;2022-07-29T02:52:34;2.30;;;1.50;;
64738;SDS011;51175;51.186;0.276;2022-07-29T02:53:21;1.88;;;1.33;;
64738;SDS011;51175;51.186;0.276;2022-07-29T02:53:54;2.25;;;1.67;;
64738;SDS011;51175;51.186;0.276;2022-07-29T02:54:32;2.33;;;1.45;;
64738;SDS011;51175;51.186;0.276;2022-07-29T02:55:18;2.30;;;1.50;;
64738;SDS011;51175;51.186;0.276;2022-07-29T02:55:55;4.40;;;1.42;;
64738;SDS011;51175;51.186;0.276;2022-07-29T02:56:28;3.22;;;1.50;;
64738;SDS011;51175;51.186;0.276;2022-07-29T02:57:06;3.58;;;1.40;;
64738;SDS011;51175;51.186;0.276;2022-07-29T02:58:28;2.55;;;1.50;;
64738;SDS011;51175;51.186;0.276;2022-07-29T02:59:34;3.45;;;1.38;;
64738;SDS011;51175;51.186;0.276;2022-07-29T03:00:07;2.85;;;1.30;;
64738;SDS011;51175;51.186;0.276;2022-07-29T03:00:39;2.90;;;1.63;;
64738;SDS011;51175;51.186;0.276;2022-07-29T03:01:11;2.35;;;1.50;;
64738;SDS011;51175;51.186;0.276;2022-07-29T03:01:45;3.42;;;1.60;;
64738;SDS011;51175;51.186;0.276;2022-07-29T03:02:15;2.80;;;1.45;;
64738;SDS011;51175;51.186;0.276;2022-07-29T03:02:49;2.30;;;1.48;;
64738;SDS011;51175;51.186;0.276;2022-07-29T03:03:22;3.00;;;1.15;;
64738;SDS011;51175;51.186;0.276;2022-07-29T03:03:59;6.57;;;1.27;;
64738;SDS011;51175;51.186;0.276;2022-07-29T03:04:33;5.30;;;2.40;;
64738;SDS011;51175;51.186;0.276;2022-07-29T03:05:05;4.15;;;1.80;;
64738;SDS011;51175;51.186;0.276;2022-07-29T03:05:38;2.60;;;1.20;;
64738;SDS011;51175;51.186;0.276;2022-07-29T03:06:09;1.95;;;1.10;;
64738;SDS011;51175;51.186;0.276;2022-07-29T03:06:41;2.38;;;1.30;;
64738;SDS011;51175;51.186;0.276;2022-07-29T03:07:14;3.78;;;1.52;;
64738;SDS011;51175;51.186;0.276;2022-07-29T03:07:54;1.75;;;1.00;;
64738;SDS011;51175;51.186;0.276;2022-07-29T03:08:27;4.18;;;1.88;;
64738;SDS011;51175;51.186;0.276;2022-07-29T03:08:59;3.55;;;1.30;;
64738;SDS011;51175;51.186;0.276;2022-07-29T03:09:30;2.83;;;1.50;;
64738;SDS011;51175;51.186;0.276;2022-07-29T03:10:01;2.15;;;1.40;;
64738;SDS011;51175;51.186;0.276;2022-07-29T03:10:33;2.03;;;1.23;;
64738;SDS011;51175;51.186;0.276;2022-07-29T03:11:04;2.17;;;1.10;;
64738;SDS011;51175;51.186;0.276;2022-07-29T03:11:35;3.25;;;1.20;;
64738;SDS011;51175;51.186;0.276;2022-07-29T03:12:06;2.67;;;1.40;;
64738;SDS011;51175;51.186;0.276;2022-07-29T03:12:37;1.92;;;1.38;;
64738;SDS011;51175;51.186;0.276;2022-07-29T03:13:08;3.80;;;1.60;;
64738;SDS011;51175;51.186;0.276;2022-07-29T03:13:40;3.67;;;1.27;;
64738;SDS011;51175;51.186;0.276;2022-07-29T03:14:11;2.20;;;1.23;;
64738;SDS011;51175;51.186;0.276;2022-07-29T03:14:43;2.28;;;1.10;;
64738;SDS011;51175;51.186;0.276;2022-07-29T03:15:14;4.05;;;2.15;;
64738;SDS011;51175;51.186;0.276;2022-07-29T03:15:45;3.25;;;1.20;;
64738;SDS011;51175;51.186;0.276;2022-07-29T03:16:18;2.25;;;1.50;;
64738;SDS011;51175;51.186;0.276;2022-07-29T03:16:49;2.92;;;1.30;;
64738;SDS011;51175;51.186;0.276;2022-07-29T03:17:21;1.60;;;1.10;;
64738;SDS011;51175;51.186;0.276;2022-07-29T03:17:52;2.10;;;1.27;;
64738;SDS011;51175;51.186;0.276;2022-07-29T03:18:23;3.05;;;1.30;;
64738;SDS011;51175;51.186;0.276;2022-07-29T03:18:55;1.92;;;1.30;;
64738;SDS011;51175;51.186;0.276;2022-07-29T03:19:26;3.35;;;1.08;;
64738;SDS011;51175;51.186;0.276;2022-07-29T03:19:57;2.85;;;1.70;;
64738;SDS011;51175;51.186;0.276;2022-07-29T03:20:28;1.52;;;1.08;;
64738;SDS011;51175;51.186;0.276;2022-07-29T03:20:59;2.08;;;1.52;;
64738;SDS011;51175;51.186;0.276;2022-07-29T03:21:29;2.50;;;1.58;;
64738;SDS011;51175;51.186;0.276;2022-07-29T03:22:00;3.40;;;1.00;;
64738;SDS011;51175;51.186;0.276;2022-07-29T03:22:31;3.65;;;1.50;;
64738;SDS011;51175;51.186;0.276;2022-07-29T03:23:02;3.00;;;1.58;;
64738;SDS011;51175;51.186;0.276;2022-07-29T03:23:33;4.15;;;1.40;;
64738;SDS011;51175;51.186;0.276;2022-07-29T03:24:03;3.53;;;1.40;;
64738;SDS011;51175;51.186;0.276;2022-07-29T03:24:34;2.92;;;1.70;;
64738;SDS011;51175;51.186;0.276;2022-07-29T03:25:09;1.67;;;1.08;;
64738;SDS011;51175;51.186;0.276;2022-07-29T03:25:41;2.10;;;1.33;;
64738;SDS011;51175;51.186;0.276;2022-07-29T03:26:13;3.35;;;1.83;;
64738;SDS011;51175;51.186;0.276;2022-07-29T03:26:43;2.15;;;1.10;;
64738;SDS011;51175;51.186;0.276;2022-07-29T03:27:14;2.22;;;1.30;;
64738;SDS011;51175;51.186;0.276;2022-07-29T03:27:44;1.80;;;1.10;;
64738;SDS011;51175;51.186;0.276;2022-07-29T03:28:16;2.72;;;1.38;;
64738;SDS011;51175;51.186;0.276;2022-07-29T03:28:46;2.85;;;1.60;;
64738;SDS011;51175;51.186;0.276;2022-07-29T03:29:17;2.15;;;1.52;;
64738;SDS011;51175;51.186;0.276;2022-07-29T03:29:47;2.50;;;1.27;;
64738;SDS011;51175;51.186;0.276;2022-07-29T03:30:17;2.10;;;1.40;;
64738;SDS011;51175;51.186;0.276;2022-07-29T03:30:48;2.95;;;1.23;;
64738;SDS011;51175;51.186;0.276;2022-07-29T03:31:19;1.95;;;1.30;;
64738;SDS011;51175;51.186;0.276;2022-07-29T03:31:50;1.42;;;0.95;;
64738;SDS011;51175;51.186;0.276;2022-07-29T03:32:20;2.25;;;1.20;;
64738;SDS011;51175;51.186;0.276;2022-07-29T03:32:51;3.45;;;1.55;;
64738;SDS011;51175;51.186;0.276;2022-07-29T03:33:22;2.67;;;0.98;;
64738;SDS011;51175;51.186;0.276;2022-07-29T03:33:52;3.00;;;1.30;;